sensor_id;sensor_type;location;lat;lon;timestamp;P1;durP1;ratioP1;P2;durP2;ratioP2
65998;SDS011;52766;56.008;37.440;2022-08-21T00:01:59;34.95;;;22.60;;
65998;SDS011;52766;56.008;37.440;2022-08-21T00:04:25;33.42;;;20.25;;
65998;SDS011;52766;56.008;37.440;2022-08-21T00:06:51;37.67;;;21.80;;
65998;SDS011;52766;56.008;37.440;2022-08-21T00:09:18;32.60;;;19.25;;
65998;SDS011;52766;56.008;37.440;2022-08-21T00:11:45;35.65;;;20.80;;
65998;SDS011;52766;56.008;37.440;2022-08-21T00:14:12;32.35;;;18.15;;
65998;SDS011;52766;56.008;37.440;2022-08-21T00:16:39;34.50;;;20.58;;
65998;SDS011;52766;56.008;37.440;2022-08-21T00:19:06;35.35;;;22.33;;
65998;SDS011;52766;56.008;37.440;2022-08-21T00:21:32;32.78;;;18.70;;
65998;SDS011;52766;56.008;37.440;2022-08-21T00:24:00;33.88;;;19.90;;
65998;SDS011;52766;56.008;37.440;2022-08-21T00:26:26;39.35;;;21.00;;
65998;SDS011;52766;56.008;37.440;2022-08-21T00:28:52;35.38;;;21.23;;
65998;SDS011;52766;56.008;37.440;2022-08-21T00:31:18;39.33;;;22.10;;
65998;SDS011;52766;56.008;37.440;2022-08-21T00:33:44;36.83;;;18.50;;
65998;SDS011;52766;56.008;37.440;2022-08-21T00:36:11;34.20;;;21.08;;
65998;SDS011;52766;56.008;37.440;2022-08-21T00:38:41;35.60;;;18.35;;
65998;SDS011;52766;56.008;37.440;2022-08-21T00:41:07;33.00;;;20.65;;
65998;SDS011;52766;56.008;37.440;2022-08-21T00:43:35;32.28;;;20.80;;
65998;SDS011;52766;56.008;37.440;2022-08-21T00:46:03;32.55;;;20.30;;
65998;SDS011;52766;56.008;37.440;2022-08-21T00:48:30;32.38;;;20.45;;
65998;SDS011;52766;56.008;37.440;2022-08-21T00:51:06;38.00;;;20.58;;
65998;SDS011;52766;56.008;37.440;2022-08-21T00:53:37;32.30;;;18.45;;
65998;SDS011;52766;56.008;37.440;2022-08-21T00:56:04;32.33;;;19.17;;
65998;SDS011;52766;56.008;37.440;2022-08-21T00:58:32;34.35;;;19.05;;
65998;SDS011;52766;56.008;37.440;2022-08-21T01:01:02;35.75;;;19.15;;
65998;SDS011;52766;56.008;37.440;2022-08-21T01:03:30;35.17;;;20.10;;
65998;SDS011;52766;56.008;37.440;2022-08-21T01:05:56;30.60;;;17.83;;
65998;SDS011;52766;56.008;37.440;2022-08-21T01:08:22;30.65;;;19.90;;
65998;SDS011;52766;56.008;37.440;2022-08-21T01:10:49;32.47;;;18.23;;
65998;SDS011;52766;56.008;37.440;2022-08-21T01:13:16;30.40;;;15.98;;
65998;SDS011;52766;56.008;37.440;2022-08-21T01:15:44;34.17;;;18.75;;
65998;SDS011;52766;56.008;37.440;2022-08-21T01:18:12;26.40;;;15.10;;
65998;SDS011;52766;56.008;37.440;2022-08-21T01:20:42;27.48;;;15.48;;
65998;SDS011;52766;56.008;37.440;2022-08-21T01:25:38;30.15;;;14.38;;
65998;SDS011;52766;56.008;37.440;2022-08-21T01:28:14;29.63;;;16.42;;
65998;SDS011;52766;56.008;37.440;2022-08-21T01:30:40;31.60;;;15.98;;
65998;SDS011;52766;56.008;37.440;2022-08-21T01:35:58;27.65;;;15.35;;
65998;SDS011;52766;56.008;37.440;2022-08-21T01:38:48;28.90;;;14.93;;
65998;SDS011;52766;56.008;37.440;2022-08-21T01:41:15;27.73;;;15.48;;
65998;SDS011;52766;56.008;37.440;2022-08-21T01:43:41;27.88;;;16.95;;
65998;SDS011;52766;56.008;37.440;2022-08-21T01:46:08;29.52;;;17.05;;
65998;SDS011;52766;56.008;37.440;2022-08-21T01:48:35;34.50;;;18.35;;
65998;SDS011;52766;56.008;37.440;2022-08-21T01:51:01;27.20;;;15.70;;
65998;SDS011;52766;56.008;37.440;2022-08-21T01:53:28;31.80;;;17.50;;
65998;SDS011;52766;56.008;37.440;2022-08-21T01:55:54;31.08;;;16.80;;
65998;SDS011;52766;56.008;37.440;2022-08-21T01:58:20;28.02;;;15.77;;
65998;SDS011;52766;56.008;37.440;2022-08-21T02:00:46;31.88;;;17.30;;
65998;SDS011;52766;56.008;37.440;2022-08-21T02:03:18;31.75;;;17.30;;
65998;SDS011;52766;56.008;37.440;2022-08-21T02:05:45;31.70;;;18.40;;
65998;SDS011;52766;56.008;37.440;2022-08-21T02:08:11;28.42;;;16.80;;
65998;SDS011;52766;56.008;37.440;2022-08-21T02:10:37;28.75;;;15.43;;
65998;SDS011;52766;56.008;37.440;2022-08-21T02:13:03;32.17;;;19.02;;
65998;SDS011;52766;56.008;37.440;2022-08-21T02:15:29;30.15;;;17.17;;
65998;SDS011;52766;56.008;37.440;2022-08-21T02:17:56;28.95;;;16.45;;
65998;SDS011;52766;56.008;37.440;2022-08-21T02:20:25;28.85;;;17.65;;
65998;SDS011;52766;56.008;37.440;2022-08-21T02:22:56;27.20;;;16.20;;
65998;SDS011;52766;56.008;37.440;2022-08-21T02:25:22;32.53;;;18.45;;
65998;SDS011;52766;56.008;37.440;2022-08-21T02:27:50;33.47;;;19.00;;
65998;SDS011;52766;56.008;37.440;2022-08-21T02:30:21;36.25;;;20.27;;
65998;SDS011;52766;56.008;37.440;2022-08-21T02:32:57;30.17;;;19.27;;
65998;SDS011;52766;56.008;37.440;2022-08-21T02:35:23;33.72;;;17.98;;
65998;SDS011;52766;56.008;37.440;2022-08-21T02:37:52;33.40;;;20.20;;
65998;SDS011;52766;56.008;37.440;2022-08-21T02:40:22;30.88;;;18.27;;
65998;SDS011;52766;56.008;37.440;2022-08-21T02:42:50;36.03;;;20.73;;
65998;SDS011;52766;56.008;37.440;2022-08-21T02:45:17;38.60;;;20.90;;
65998;SDS011;52766;56.008;37.440;2022-08-21T02:47:47;30.15;;;17.88;;
65998;SDS011;52766;56.008;37.440;2022-08-21T02:50:25;40.83;;;22.95;;
65998;SDS011;52766;56.008;37.440;2022-08-21T02:53:02;38.90;;;22.90;;
65998;SDS011;52766;56.008;37.440;2022-08-21T02:55:29;36.97;;;21.40;;
65998;SDS011;52766;56.008;37.440;2022-08-21T02:57:57;40.92;;;22.23;;
65998;SDS011;52766;56.008;37.440;2022-08-21T03:00:25;40.22;;;24.50;;
65998;SDS011;52766;56.008;37.440;2022-08-21T03:02:52;37.88;;;23.77;;
65998;SDS011;52766;56.008;37.440;2022-08-21T03:05:18;40.83;;;22.50;;
65998;SDS011;52766;56.008;37.440;2022-08-21T03:07:45;40.65;;;25.92;;
65998;SDS011;52766;56.008;37.440;2022-08-21T03:10:12;46.22;;;27.50;;
65998;SDS011;52766;56.008;37.440;2022-08-21T03:12:39;42.85;;;27.55;;
65998;SDS011;52766;56.008;37.440;2022-08-21T03:15:06;45.65;;;26.73;;
65998;SDS011;52766;56.008;37.440;2022-08-21T03:17:33;48.63;;;27.20;;
65998;SDS011;52766;56.008;37.440;2022-08-21T03:20:00;51.70;;;29.45;;
65998;SDS011;52766;56.008;37.440;2022-08-21T03:22:26;45.55;;;27.85;;
65998;SDS011;52766;56.008;37.440;2022-08-21T03:24:52;46.80;;;27.50;;
65998;SDS011;52766;56.008;37.440;2022-08-21T03:27:19;51.60;;;30.05;;
65998;SDS011;52766;56.008;37.440;2022-08-21T03:29:45;46.88;;;25.70;;
65998;SDS011;52766;56.008;37.440;2022-08-21T03:32:11;52.20;;;29.85;;
65998;SDS011;52766;56.008;37.440;2022-08-21T03:34:37;50.45;;;30.40;;
65998;SDS011;52766;56.008;37.440;2022-08-21T03:37:04;51.05;;;27.67;;
65998;SDS011;52766;56.008;37.440;2022-08-21T03:39:32;43.13;;;26.73;;
65998;SDS011;52766;56.008;37.440;2022-08-21T03:41:58;44.47;;;28.55;;
65998;SDS011;52766;56.008;37.440;2022-08-21T03:44:25;49.92;;;30.75;;
65998;SDS011;52766;56.008;37.440;2022-08-21T03:46:53;47.88;;;29.15;;
65998;SDS011;52766;56.008;37.440;2022-08-21T03:49:19;49.50;;;30.42;;
65998;SDS011;52766;56.008;37.440;2022-08-21T03:51:45;60.22;;;33.60;;
65998;SDS011;52766;56.008;37.440;2022-08-21T03:54:11;48.08;;;31.98;;
65998;SDS011;52766;56.008;37.440;2022-08-21T03:56:37;52.47;;;33.08;;
65998;SDS011;52766;56.008;37.440;2022-08-21T03:59:05;52.08;;;34.28;;
65998;SDS011;52766;56.008;37.440;2022-08-21T04:01:31;54.70;;;33.67;;
65998;SDS011;52766;56.008;37.440;2022-08-21T04:03:57;48.30;;;30.65;;
65998;SDS011;52766;56.008;37.440;2022-08-21T04:06:23;49.00;;;30.85;;
65998;SDS011;52766;56.008;37.440;2022-08-21T04:08:50;48.63;;;32.22;;
65998;SDS011;52766;56.008;37.440;2022-08-21T04:11:16;54.10;;;33.53;;
65998;SDS011;52766;56.008;37.440;2022-08-21T04:13:42;55.75;;;35.97;;
65998;SDS011;52766;56.008;37.440;2022-08-21T04:16:09;55.47;;;32.42;;
65998;SDS011;52766;56.008;37.440;2022-08-21T04:18:35;51.65;;;32.85;;
65998;SDS011;52766;56.008;37.440;2022-08-21T04:21:01;56.75;;;37.80;;
65998;SDS011;52766;56.008;37.440;2022-08-21T04:23:27;60.03;;;37.05;;
65998;SDS011;52766;56.008;37.440;2022-08-21T04:25:55;57.65;;;33.90;;
65998;SDS011;52766;56.008;37.440;2022-08-21T04:28:22;55.53;;;36.55;;
65998;SDS011;52766;56.008;37.440;2022-08-21T04:30:52;61.75;;;38.28;;
65998;SDS011;52766;56.008;37.440;2022-08-21T04:33:19;62.03;;;35.58;;
65998;SDS011;52766;56.008;37.440;2022-08-21T04:35:46;61.08;;;33.67;;
65998;SDS011;52766;56.008;37.440;2022-08-21T04:38:12;63.58;;;38.60;;
65998;SDS011;52766;56.008;37.440;2022-08-21T04:40:38;58.75;;;35.05;;
65998;SDS011;52766;56.008;37.440;2022-08-21T04:43:05;57.30;;;35.15;;
65998;SDS011;52766;56.008;37.440;2022-08-21T04:45:35;54.53;;;35.83;;
65998;SDS011;52766;56.008;37.440;2022-08-21T04:48:04;63.25;;;39.00;;
65998;SDS011;52766;56.008;37.440;2022-08-21T04:53:24;52.20;;;33.22;;
65998;SDS011;52766;56.008;37.440;2022-08-21T04:56:13;53.97;;;35.10;;
65998;SDS011;52766;56.008;37.440;2022-08-21T04:58:44;55.85;;;35.75;;
65998;SDS011;52766;56.008;37.440;2022-08-21T05:01:13;55.55;;;37.58;;
65998;SDS011;52766;56.008;37.440;2022-08-21T05:03:42;55.83;;;35.78;;
65998;SDS011;52766;56.008;37.440;2022-08-21T05:06:18;57.90;;;38.65;;
65998;SDS011;52766;56.008;37.440;2022-08-21T05:08:44;60.22;;;35.95;;
65998;SDS011;52766;56.008;37.440;2022-08-21T05:11:18;56.78;;;34.53;;
65998;SDS011;52766;56.008;37.440;2022-08-21T05:13:49;62.08;;;39.08;;
65998;SDS011;52766;56.008;37.440;2022-08-21T05:16:16;57.83;;;36.97;;
65998;SDS011;52766;56.008;37.440;2022-08-21T05:18:45;49.05;;;30.50;;
65998;SDS011;52766;56.008;37.440;2022-08-21T05:21:11;56.83;;;36.60;;
65998;SDS011;52766;56.008;37.440;2022-08-21T05:23:38;58.50;;;35.80;;
65998;SDS011;52766;56.008;37.440;2022-08-21T05:26:04;56.90;;;37.00;;
65998;SDS011;52766;56.008;37.440;2022-08-21T05:28:30;57.35;;;37.97;;
65998;SDS011;52766;56.008;37.440;2022-08-21T05:30:56;58.45;;;37.70;;
65998;SDS011;52766;56.008;37.440;2022-08-21T05:33:23;57.78;;;37.00;;
65998;SDS011;52766;56.008;37.440;2022-08-21T05:35:51;56.05;;;34.70;;
65998;SDS011;52766;56.008;37.440;2022-08-21T05:38:18;53.42;;;33.92;;
65998;SDS011;52766;56.008;37.440;2022-08-21T05:40:47;50.70;;;35.88;;
65998;SDS011;52766;56.008;37.440;2022-08-21T05:43:13;55.67;;;36.88;;
65998;SDS011;52766;56.008;37.440;2022-08-21T05:45:39;54.85;;;33.78;;
65998;SDS011;52766;56.008;37.440;2022-08-21T05:48:07;56.17;;;34.45;;
65998;SDS011;52766;56.008;37.440;2022-08-21T05:50:34;57.67;;;34.92;;
65998;SDS011;52766;56.008;37.440;2022-08-21T05:53:00;53.80;;;35.05;;
65998;SDS011;52766;56.008;37.440;2022-08-21T05:55:27;57.33;;;34.67;;
65998;SDS011;52766;56.008;37.440;2022-08-21T05:57:53;51.90;;;34.42;;
65998;SDS011;52766;56.008;37.440;2022-08-21T06:00:20;49.30;;;31.75;;
65998;SDS011;52766;56.008;37.440;2022-08-21T06:02:48;54.80;;;35.17;;
65998;SDS011;52766;56.008;37.440;2022-08-21T06:05:16;52.50;;;31.55;;
65998;SDS011;52766;56.008;37.440;2022-08-21T06:07:45;50.05;;;32.85;;
65998;SDS011;52766;56.008;37.440;2022-08-21T06:10:12;49.17;;;32.67;;
65998;SDS011;52766;56.008;37.440;2022-08-21T06:12:38;52.97;;;32.25;;
65998;SDS011;52766;56.008;37.440;2022-08-21T06:15:09;51.40;;;31.30;;
65998;SDS011;52766;56.008;37.440;2022-08-21T06:17:40;52.20;;;31.90;;
65998;SDS011;52766;56.008;37.440;2022-08-21T06:20:08;50.08;;;31.10;;
65998;SDS011;52766;56.008;37.440;2022-08-21T06:22:35;53.90;;;32.70;;
65998;SDS011;52766;56.008;37.440;2022-08-21T06:25:03;49.45;;;32.92;;
65998;SDS011;52766;56.008;37.440;2022-08-21T06:27:38;45.38;;;32.67;;
65998;SDS011;52766;56.008;37.440;2022-08-21T06:30:08;48.92;;;29.73;;
65998;SDS011;52766;56.008;37.440;2022-08-21T06:32:36;47.97;;;30.30;;
65998;SDS011;52766;56.008;37.440;2022-08-21T06:35:03;45.97;;;32.15;;
65998;SDS011;52766;56.008;37.440;2022-08-21T06:37:30;50.45;;;32.05;;
65998;SDS011;52766;56.008;37.440;2022-08-21T06:39:58;50.97;;;31.77;;
65998;SDS011;52766;56.008;37.440;2022-08-21T06:42:24;44.63;;;30.00;;
65998;SDS011;52766;56.008;37.440;2022-08-21T06:44:56;47.53;;;30.25;;
65998;SDS011;52766;56.008;37.440;2022-08-21T06:50:01;48.85;;;30.90;;
65998;SDS011;52766;56.008;37.440;2022-08-21T06:52:29;42.20;;;28.02;;
65998;SDS011;52766;56.008;37.440;2022-08-21T06:54:55;47.95;;;31.08;;
65998;SDS011;52766;56.008;37.440;2022-08-21T06:57:24;47.65;;;32.63;;
65998;SDS011;52766;56.008;37.440;2022-08-21T06:59:54;43.28;;;30.30;;
65998;SDS011;52766;56.008;37.440;2022-08-21T07:02:24;43.90;;;27.45;;
65998;SDS011;52766;56.008;37.440;2022-08-21T07:04:51;40.83;;;28.08;;
65998;SDS011;52766;56.008;37.440;2022-08-21T07:09:48;42.22;;;28.42;;
65998;SDS011;52766;56.008;37.440;2022-08-21T07:12:13;46.38;;;28.52;;
65998;SDS011;52766;56.008;37.440;2022-08-21T07:14:41;43.90;;;29.38;;
65998;SDS011;52766;56.008;37.440;2022-08-21T07:17:08;40.70;;;29.20;;
65998;SDS011;52766;56.008;37.440;2022-08-21T07:19:35;42.13;;;27.40;;
65998;SDS011;52766;56.008;37.440;2022-08-21T07:22:01;40.60;;;29.55;;
65998;SDS011;52766;56.008;37.440;2022-08-21T07:24:28;42.83;;;27.52;;
65998;SDS011;52766;56.008;37.440;2022-08-21T07:26:54;40.35;;;26.55;;
65998;SDS011;52766;56.008;37.440;2022-08-21T07:29:22;41.95;;;27.77;;
65998;SDS011;52766;56.008;37.440;2022-08-21T07:31:51;43.72;;;26.08;;
65998;SDS011;52766;56.008;37.440;2022-08-21T07:34:18;44.88;;;27.73;;
65998;SDS011;52766;56.008;37.440;2022-08-21T07:36:48;41.28;;;28.20;;
65998;SDS011;52766;56.008;37.440;2022-08-21T07:39:15;36.58;;;26.20;;
65998;SDS011;52766;56.008;37.440;2022-08-21T07:41:55;38.78;;;26.30;;
65998;SDS011;52766;56.008;37.440;2022-08-21T07:44:22;40.70;;;27.42;;
65998;SDS011;52766;56.008;37.440;2022-08-21T07:46:49;38.70;;;25.58;;
65998;SDS011;52766;56.008;37.440;2022-08-21T07:49:15;32.63;;;23.38;;
65998;SDS011;52766;56.008;37.440;2022-08-21T07:51:41;34.15;;;25.33;;
65998;SDS011;52766;56.008;37.440;2022-08-21T07:54:07;32.63;;;23.85;;
65998;SDS011;52766;56.008;37.440;2022-08-21T07:56:35;36.25;;;24.77;;
65998;SDS011;52766;56.008;37.440;2022-08-21T08:02:09;33.75;;;22.80;;
65998;SDS011;52766;56.008;37.440;2022-08-21T08:04:35;29.85;;;21.48;;
65998;SDS011;52766;56.008;37.440;2022-08-21T08:07:10;32.20;;;22.85;;
65998;SDS011;52766;56.008;37.440;2022-08-21T08:09:36;29.10;;;20.13;;
65998;SDS011;52766;56.008;37.440;2022-08-21T08:12:03;31.13;;;20.08;;
65998;SDS011;52766;56.008;37.440;2022-08-21T08:14:29;32.42;;;21.65;;
65998;SDS011;52766;56.008;37.440;2022-08-21T08:16:55;33.10;;;21.48;;
65998;SDS011;52766;56.008;37.440;2022-08-21T08:19:21;33.70;;;20.90;;
65998;SDS011;52766;56.008;37.440;2022-08-21T08:21:47;31.45;;;20.45;;
65998;SDS011;52766;56.008;37.440;2022-08-21T08:24:13;35.00;;;21.17;;
65998;SDS011;52766;56.008;37.440;2022-08-21T08:26:40;33.60;;;21.10;;
65998;SDS011;52766;56.008;37.440;2022-08-21T08:29:06;36.47;;;21.38;;
65998;SDS011;52766;56.008;37.440;2022-08-21T08:31:32;33.42;;;22.17;;
65998;SDS011;52766;56.008;37.440;2022-08-21T08:33:59;29.80;;;22.50;;
65998;SDS011;52766;56.008;37.440;2022-08-21T08:36:31;32.40;;;20.30;;
65998;SDS011;52766;56.008;37.440;2022-08-21T08:39:01;32.00;;;21.33;;
65998;SDS011;52766;56.008;37.440;2022-08-21T08:41:31;31.85;;;19.52;;
65998;SDS011;52766;56.008;37.440;2022-08-21T08:43:59;31.30;;;19.10;;
65998;SDS011;52766;56.008;37.440;2022-08-21T08:52:01;30.73;;;18.77;;
65998;SDS011;52766;56.008;37.440;2022-08-21T08:57:36;27.92;;;18.83;;
65998;SDS011;52766;56.008;37.440;2022-08-21T09:00:05;27.17;;;17.65;;
65998;SDS011;52766;56.008;37.440;2022-08-21T09:02:38;26.27;;;17.85;;
65998;SDS011;52766;56.008;37.440;2022-08-21T09:05:06;33.75;;;19.30;;
65998;SDS011;52766;56.008;37.440;2022-08-21T09:10:13;31.13;;;19.40;;
65998;SDS011;52766;56.008;37.440;2022-08-21T09:12:58;25.70;;;17.83;;
65998;SDS011;52766;56.008;37.440;2022-08-21T09:15:59;32.08;;;19.45;;
65998;SDS011;52766;56.008;37.440;2022-08-21T09:24:29;31.73;;;18.55;;
65998;SDS011;52766;56.008;37.440;2022-08-21T09:29:40;27.33;;;17.52;;
65998;SDS011;52766;56.008;37.440;2022-08-21T09:32:18;33.50;;;20.17;;
65998;SDS011;52766;56.008;37.440;2022-08-21T09:34:59;25.85;;;19.23;;
65998;SDS011;52766;56.008;37.440;2022-08-21T09:37:29;25.35;;;19.38;;
65998;SDS011;52766;56.008;37.440;2022-08-21T09:39:56;34.28;;;20.27;;
65998;SDS011;52766;56.008;37.440;2022-08-21T09:42:28;27.27;;;19.73;;
65998;SDS011;52766;56.008;37.440;2022-08-21T09:47:33;32.28;;;20.23;;
65998;SDS011;52766;56.008;37.440;2022-08-21T09:50:11;30.45;;;18.77;;
65998;SDS011;52766;56.008;37.440;2022-08-21T09:52:45;31.33;;;20.27;;
65998;SDS011;52766;56.008;37.440;2022-08-21T09:55:33;27.88;;;18.88;;
65998;SDS011;52766;56.008;37.440;2022-08-21T10:00:59;30.55;;;21.25;;
65998;SDS011;52766;56.008;37.440;2022-08-21T10:03:33;29.85;;;20.20;;
65998;SDS011;52766;56.008;37.440;2022-08-21T10:06:04;32.40;;;20.27;;
65998;SDS011;52766;56.008;37.440;2022-08-21T10:08:36;30.90;;;19.90;;
65998;SDS011;52766;56.008;37.440;2022-08-21T10:11:06;25.90;;;19.08;;
65998;SDS011;52766;56.008;37.440;2022-08-21T10:19:35;30.50;;;20.73;;
65998;SDS011;52766;56.008;37.440;2022-08-21T10:22:32;27.05;;;19.88;;
65998;SDS011;52766;56.008;37.440;2022-08-21T10:25:15;29.55;;;19.15;;
65998;SDS011;52766;56.008;37.440;2022-08-21T10:27:51;29.30;;;19.20;;
65998;SDS011;52766;56.008;37.440;2022-08-21T10:30:46;30.48;;;18.23;;
65998;SDS011;52766;56.008;37.440;2022-08-21T10:38:57;30.00;;;20.20;;
65998;SDS011;52766;56.008;37.440;2022-08-21T10:44:23;31.15;;;21.17;;
65998;SDS011;52766;56.008;37.440;2022-08-21T10:55:25;25.52;;;17.20;;
65998;SDS011;52766;56.008;37.440;2022-08-21T10:58:08;28.33;;;17.80;;
65998;SDS011;52766;56.008;37.440;2022-08-21T11:00:47;22.30;;;15.45;;
65998;SDS011;52766;56.008;37.440;2022-08-21T11:03:18;27.17;;;18.38;;
65998;SDS011;52766;56.008;37.440;2022-08-21T11:05:52;28.27;;;17.85;;
65998;SDS011;52766;56.008;37.440;2022-08-21T11:08:26;24.73;;;18.15;;
65998;SDS011;52766;56.008;37.440;2022-08-21T11:11:18;29.27;;;18.52;;
65998;SDS011;52766;56.008;37.440;2022-08-21T11:13:56;27.20;;;17.33;;
65998;SDS011;52766;56.008;37.440;2022-08-21T11:22:15;27.23;;;17.88;;
65998;SDS011;52766;56.008;37.440;2022-08-21T11:25:14;27.85;;;17.45;;
65998;SDS011;52766;56.008;37.440;2022-08-21T11:27:45;29.15;;;19.48;;
65998;SDS011;52766;56.008;37.440;2022-08-21T11:30:18;28.70;;;19.02;;
65998;SDS011;52766;56.008;37.440;2022-08-21T11:35:20;27.10;;;17.63;;
65998;SDS011;52766;56.008;37.440;2022-08-21T11:40:32;26.30;;;17.10;;
65998;SDS011;52766;56.008;37.440;2022-08-21T11:43:12;24.88;;;16.42;;
65998;SDS011;52766;56.008;37.440;2022-08-21T11:48:39;24.00;;;14.75;;
65998;SDS011;52766;56.008;37.440;2022-08-21T11:51:14;26.02;;;14.55;;
65998;SDS011;52766;56.008;37.440;2022-08-21T11:56:40;25.15;;;15.07;;
65998;SDS011;52766;56.008;37.440;2022-08-21T11:59:15;25.48;;;14.75;;
65998;SDS011;52766;56.008;37.440;2022-08-21T12:01:46;24.95;;;15.00;;
65998;SDS011;52766;56.008;37.440;2022-08-21T12:04:33;26.10;;;14.73;;
65998;SDS011;52766;56.008;37.440;2022-08-21T12:07:27;26.17;;;13.40;;
65998;SDS011;52766;56.008;37.440;2022-08-21T12:10:35;29.13;;;14.82;;
65998;SDS011;52766;56.008;37.440;2022-08-21T12:13:05;22.25;;;14.45;;
65998;SDS011;52766;56.008;37.440;2022-08-21T12:15:39;24.67;;;15.38;;
65998;SDS011;52766;56.008;37.440;2022-08-21T12:18:28;26.08;;;14.40;;
65998;SDS011;52766;56.008;37.440;2022-08-21T12:26:49;24.58;;;14.25;;
65998;SDS011;52766;56.008;37.440;2022-08-21T12:32:03;25.10;;;14.80;;
65998;SDS011;52766;56.008;37.440;2022-08-21T12:37:47;26.63;;;15.45;;
65998;SDS011;52766;56.008;37.440;2022-08-21T12:40:25;25.10;;;15.82;;
65998;SDS011;52766;56.008;37.440;2022-08-21T12:42:59;25.35;;;14.95;;
65998;SDS011;52766;56.008;37.440;2022-08-21T12:48:04;22.90;;;15.15;;
65998;SDS011;52766;56.008;37.440;2022-08-21T12:53:27;25.98;;;15.95;;
65998;SDS011;52766;56.008;37.440;2022-08-21T12:56:10;26.48;;;16.27;;
65998;SDS011;52766;56.008;37.440;2022-08-21T12:58:46;31.23;;;15.40;;
65998;SDS011;52766;56.008;37.440;2022-08-21T13:01:25;24.13;;;15.05;;
65998;SDS011;52766;56.008;37.440;2022-08-21T13:04:02;25.15;;;14.65;;
65998;SDS011;52766;56.008;37.440;2022-08-21T13:06:37;24.30;;;13.80;;
65998;SDS011;52766;56.008;37.440;2022-08-21T13:09:06;23.10;;;12.60;;
65998;SDS011;52766;56.008;37.440;2022-08-21T13:11:36;20.60;;;13.27;;
65998;SDS011;52766;56.008;37.440;2022-08-21T13:14:02;24.85;;;12.73;;
65998;SDS011;52766;56.008;37.440;2022-08-21T13:16:31;21.98;;;11.48;;
65998;SDS011;52766;56.008;37.440;2022-08-21T13:18:59;21.42;;;12.05;;
65998;SDS011;52766;56.008;37.440;2022-08-21T13:21:48;22.20;;;10.63;;
65998;SDS011;52766;56.008;37.440;2022-08-21T13:26:50;17.08;;;9.10;;
65998;SDS011;52766;56.008;37.440;2022-08-21T13:29:21;18.85;;;10.40;;
65998;SDS011;52766;56.008;37.440;2022-08-21T13:31:54;20.90;;;10.45;;
65998;SDS011;52766;56.008;37.440;2022-08-21T13:34:29;21.38;;;11.90;;
65998;SDS011;52766;56.008;37.440;2022-08-21T13:36:59;18.60;;;10.02;;
65998;SDS011;52766;56.008;37.440;2022-08-21T13:39:29;19.60;;;11.32;;
65998;SDS011;52766;56.008;37.440;2022-08-21T13:41:57;26.17;;;12.00;;
65998;SDS011;52766;56.008;37.440;2022-08-21T13:44:36;20.85;;;12.20;;
65998;SDS011;52766;56.008;37.440;2022-08-21T13:47:09;21.23;;;14.38;;
65998;SDS011;52766;56.008;37.440;2022-08-21T13:49:38;18.50;;;12.05;;
65998;SDS011;52766;56.008;37.440;2022-08-21T13:52:15;20.17;;;12.90;;
65998;SDS011;52766;56.008;37.440;2022-08-21T13:54:57;20.77;;;12.75;;
65998;SDS011;52766;56.008;37.440;2022-08-21T13:57:33;21.45;;;13.63;;
65998;SDS011;52766;56.008;37.440;2022-08-21T14:02:53;23.88;;;13.98;;
65998;SDS011;52766;56.008;37.440;2022-08-21T14:05:35;22.95;;;13.80;;
65998;SDS011;52766;56.008;37.440;2022-08-21T14:08:10;28.13;;;14.68;;
65998;SDS011;52766;56.008;37.440;2022-08-21T14:10:46;26.58;;;14.95;;
65998;SDS011;52766;56.008;37.440;2022-08-21T14:13:33;25.95;;;15.70;;
65998;SDS011;52766;56.008;37.440;2022-08-21T14:18:49;25.73;;;16.27;;
65998;SDS011;52766;56.008;37.440;2022-08-21T14:21:24;23.95;;;14.65;;
65998;SDS011;52766;56.008;37.440;2022-08-21T14:26:45;26.65;;;16.90;;
65998;SDS011;52766;56.008;37.440;2022-08-21T14:29:15;25.25;;;16.38;;
65998;SDS011;52766;56.008;37.440;2022-08-21T14:31:43;28.02;;;18.05;;
65998;SDS011;52766;56.008;37.440;2022-08-21T14:34:29;26.85;;;17.50;;
65998;SDS011;52766;56.008;37.440;2022-08-21T14:37:07;23.42;;;16.65;;
65998;SDS011;52766;56.008;37.440;2022-08-21T14:39:36;26.75;;;16.60;;
65998;SDS011;52766;56.008;37.440;2022-08-21T14:42:02;34.78;;;21.73;;
65998;SDS011;52766;56.008;37.440;2022-08-21T14:44:32;31.23;;;20.13;;
65998;SDS011;52766;56.008;37.440;2022-08-21T14:47:02;29.33;;;20.80;;
65998;SDS011;52766;56.008;37.440;2022-08-21T14:49:32;29.15;;;18.95;;
65998;SDS011;52766;56.008;37.440;2022-08-21T14:51:58;27.38;;;19.08;;
65998;SDS011;52766;56.008;37.440;2022-08-21T14:54:28;33.78;;;20.45;;
65998;SDS011;52766;56.008;37.440;2022-08-21T14:56:56;32.33;;;20.67;;
65998;SDS011;52766;56.008;37.440;2022-08-21T14:59:23;33.20;;;21.77;;
65998;SDS011;52766;56.008;37.440;2022-08-21T15:01:51;33.72;;;21.25;;
65998;SDS011;52766;56.008;37.440;2022-08-21T15:04:17;30.73;;;21.77;;
65998;SDS011;52766;56.008;37.440;2022-08-21T15:06:47;31.58;;;22.33;;
65998;SDS011;52766;56.008;37.440;2022-08-21T15:09:20;30.48;;;23.75;;
65998;SDS011;52766;56.008;37.440;2022-08-21T15:11:47;30.20;;;23.30;;
65998;SDS011;52766;56.008;37.440;2022-08-21T15:14:20;35.92;;;24.77;;
65998;SDS011;52766;56.008;37.440;2022-08-21T15:16:48;37.10;;;26.85;;
65998;SDS011;52766;56.008;37.440;2022-08-21T15:19:14;37.78;;;28.02;;
65998;SDS011;52766;56.008;37.440;2022-08-21T15:21:41;33.55;;;27.30;;
65998;SDS011;52766;56.008;37.440;2022-08-21T15:24:07;38.40;;;28.90;;
65998;SDS011;52766;56.008;37.440;2022-08-21T15:26:33;40.75;;;31.52;;
65998;SDS011;52766;56.008;37.440;2022-08-21T15:29:00;43.15;;;31.77;;
65998;SDS011;52766;56.008;37.440;2022-08-21T15:31:26;41.88;;;32.53;;
65998;SDS011;52766;56.008;37.440;2022-08-21T15:33:53;42.90;;;32.47;;
65998;SDS011;52766;56.008;37.440;2022-08-21T15:36:19;41.95;;;32.17;;
65998;SDS011;52766;56.008;37.440;2022-08-21T15:38:45;39.90;;;32.92;;
65998;SDS011;52766;56.008;37.440;2022-08-21T15:41:12;43.10;;;33.17;;
65998;SDS011;52766;56.008;37.440;2022-08-21T15:43:48;45.95;;;32.30;;
65998;SDS011;52766;56.008;37.440;2022-08-21T15:46:17;51.35;;;36.85;;
65998;SDS011;52766;56.008;37.440;2022-08-21T15:51:15;47.03;;;37.53;;
65998;SDS011;52766;56.008;37.440;2022-08-21T15:53:42;53.88;;;40.35;;
65998;SDS011;52766;56.008;37.440;2022-08-21T15:56:54;51.45;;;39.33;;
65998;SDS011;52766;56.008;37.440;2022-08-21T15:59:01;48.63;;;40.03;;
65998;SDS011;52766;56.008;37.440;2022-08-21T16:05:31;55.05;;;40.72;;
65998;SDS011;52766;56.008;37.440;2022-08-21T16:07:59;52.22;;;40.38;;
65998;SDS011;52766;56.008;37.440;2022-08-21T16:10:25;52.92;;;41.10;;
65998;SDS011;52766;56.008;37.440;2022-08-21T16:12:54;54.10;;;41.17;;
65998;SDS011;52766;56.008;37.440;2022-08-21T16:15:23;48.05;;;38.05;;
65998;SDS011;52766;56.008;37.440;2022-08-21T16:21:37;52.20;;;39.65;;
65998;SDS011;52766;56.008;37.440;2022-08-21T16:24:05;53.97;;;38.65;;
65998;SDS011;52766;56.008;37.440;2022-08-21T16:26:31;46.20;;;35.17;;